createdAt,value
2018-12-30T00:00:05.139Z,92.92
2018-12-30T00:02:36.948Z,93.00
2018-12-30T00:05:08.394Z,93.04
2018-12-30T00:07:40.021Z,93.13
2018-12-30T00:10:11.551Z,93.37
2018-12-30T00:12:42.780Z,93.48
2018-12-30T00:15:14.065Z,93.35
2018-12-30T00:17:45.299Z,93.42
2018-12-30T00:20:16.894Z,93.53
2018-12-30T00:22:48.342Z,93.34
2018-12-30T00:25:20.359Z,93.39
2018-12-30T00:27:51.789Z,93.41
2018-12-30T00:30:23.031Z,93.25
2018-12-30T00:32:54.067Z,93.34
2018-12-30T00:35:25.199Z,93.35
2018-12-30T00:37:57.715Z,93.22
2018-12-30T00:40:30.433Z,92.97
2018-12-30T00:43:05.863Z,93.01
2018-12-30T00:45:37.259Z,92.83
2018-12-30T00:48:08.527Z,92.66
2018-12-30T00:50:39.674Z,92.60
2018-12-30T00:53:10.726Z,92.51
2018-12-30T00:55:42.306Z,92.42
2018-12-30T00:58:13.755Z,92.45
2018-12-30T01:00:44.842Z,92.52
2018-12-30T01:03:17.128Z,92.50
2018-12-30T01:05:48.324Z,92.22
2018-12-30T01:08:19.521Z,92.24
2018-12-30T01:10:51.709Z,92.31
2018-12-30T01:13:23.128Z,92.20
2018-12-30T01:15:55.529Z,92.07
2018-12-30T01:18:28.159Z,92.04
2018-12-30T01:20:59.255Z,92.01
2018-12-30T01:23:30.760Z,91.73
2018-12-30T01:26:01.952Z,91.83
2018-12-30T01:28:33.102Z,92.04
2018-12-30T01:31:04.100Z,92.08
2018-12-30T01:33:35.475Z,92.15
2018-12-30T01:36:07.053Z,92.34
2018-12-30T01:38:38.394Z,92.53
2018-12-30T01:41:10.878Z,92.63
2018-12-30T01:43:42.212Z,92.55
2018-12-30T01:46:13.200Z,92.56
2018-12-30T01:48:45.505Z,92.45
2018-12-30T01:51:16.613Z,92.53
2018-12-30T01:53:47.885Z,92.59
2018-12-30T01:56:19.484Z,92.48
2018-12-30T01:58:51.246Z,92.43
2018-12-30T02:01:22.496Z,92.28
2018-12-30T02:03:53.666Z,91.97
2018-12-30T02:06:26.589Z,91.76
2018-12-30T02:08:57.784Z,91.89
2018-12-30T02:11:29.015Z,91.90
2018-12-30T02:14:00.225Z,91.93
2018-12-30T02:16:31.221Z,91.81
2018-12-30T02:19:02.367Z,91.75
2018-12-30T02:21:40.933Z,91.51
2018-12-30T02:24:07.685Z,91.59
2018-12-30T02:26:38.841Z,91.79
2018-12-30T02:29:09.979Z,92.04
2018-12-30T02:31:41.208Z,92.42
2018-12-30T02:34:12.235Z,92.76
2018-12-30T02:36:43.388Z,92.99
2018-12-30T02:39:15.064Z,93.11
2018-12-30T02:41:46.938Z,93.34
2018-12-30T02:44:18.424Z,93.24
2018-12-30T02:46:49.481Z,93.25
2018-12-30T02:49:20.890Z,93.15
2018-12-30T02:51:52.310Z,93.34
2018-12-30T02:54:24.007Z,93.64
2018-12-30T02:56:55.071Z,93.71
2018-12-30T02:59:27.753Z,93.79
2018-12-30T03:01:59.856Z,93.77
2018-12-30T03:04:31.318Z,93.60
2018-12-30T03:07:02.961Z,93.68
2018-12-30T03:09:34.151Z,93.79
2018-12-30T03:12:06.351Z,93.63
2018-12-30T03:14:37.781Z,93.56
2018-12-30T03:17:08.906Z,93.54
2018-12-30T03:19:40.724Z,93.56
2018-12-30T03:22:12.369Z,93.42
2018-12-30T03:24:43.424Z,93.48
2018-12-30T03:27:14.804Z,93.49
2018-12-30T03:29:46.049Z,93.31
2018-12-30T03:32:17.193Z,93.27
2018-12-30T03:34:48.405Z,93.22
2018-12-30T03:37:19.493Z,93.23
2018-12-30T03:39:50.749Z,93.11
2018-12-30T03:42:21.957Z,93.08
2018-12-30T03:44:53.206Z,93.07
2018-12-30T03:47:24.346Z,92.93
2018-12-30T03:49:56.029Z,93.00
2018-12-30T03:52:28.681Z,92.80
2018-12-30T03:54:59.857Z,92.69
2018-12-30T03:57:31.458Z,92.82
2018-12-30T04:00:02.860Z,92.95
2018-12-30T04:02:34.208Z,93.02
2018-12-30T04:05:06.183Z,92.84
2018-12-30T04:07:37.411Z,92.63
2018-12-30T04:10:08.904Z,92.60
2018-12-30T04:12:40.639Z,92.50
2018-12-30T04:15:12.199Z,92.26
2018-12-30T04:17:43.335Z,92.15
2018-12-30T04:20:14.371Z,92.04
2018-12-30T04:22:45.568Z,91.89
2018-12-30T04:25:16.917Z,92.01
2018-12-30T04:27:47.910Z,92.18
2018-12-30T04:30:20.674Z,91.94
2018-12-30T04:32:54.034Z,91.89
2018-12-30T04:35:25.386Z,91.85
2018-12-30T04:37:56.493Z,91.85
2018-12-30T04:40:27.715Z,91.68
2018-12-30T04:42:59.059Z,91.57
2018-12-30T04:45:30.365Z,91.48
2018-12-30T04:48:01.553Z,91.48
2018-12-30T04:50:32.738Z,91.36
2018-12-30T04:53:03.972Z,91.20
2018-12-30T04:55:35.466Z,91.42
2018-12-30T04:58:07.671Z,91.31
2018-12-30T05:00:38.789Z,91.13
2018-12-30T05:03:09.955Z,91.18
2018-12-30T05:05:43.782Z,91.25
2018-12-30T05:08:16.530Z,91.46
2018-12-30T05:10:48.038Z,91.22
2018-12-30T05:13:19.411Z,90.99
2018-12-30T05:15:51.934Z,90.98
2018-12-30T05:18:23.016Z,90.69
2018-12-30T05:20:54.164Z,90.63
2018-12-30T05:23:25.545Z,90.34
2018-12-30T05:25:56.579Z,90.15
2018-12-30T05:28:27.573Z,90.15
2018-12-30T05:30:59.075Z,89.85
2018-12-30T05:33:31.936Z,89.64
2018-12-30T05:36:03.114Z,89.89
2018-12-30T05:38:35.847Z,89.69
2018-12-30T05:41:07.368Z,89.62
2018-12-30T05:43:38.745Z,89.58
2018-12-30T05:46:10.059Z,89.63
2018-12-30T05:48:41.172Z,89.54
2018-12-30T05:51:13.300Z,89.39
2018-12-30T05:53:44.403Z,89.46
2018-12-30T05:56:15.558Z,89.14
2018-12-30T05:58:46.835Z,89.14
2018-12-30T06:01:17.999Z,89.42
2018-12-30T06:03:49.031Z,89.32
2018-12-30T06:06:20.446Z,89.22
2018-12-30T06:08:51.628Z,89.20
2018-12-30T06:11:22.853Z,89.17
2018-12-30T06:13:53.863Z,89.17
2018-12-30T06:16:25.116Z,89.21
2018-12-30T06:18:56.634Z,89.39
2018-12-30T06:21:27.915Z,89.45
2018-12-30T06:23:59.077Z,89.41
2018-12-30T06:26:30.146Z,89.36
2018-12-30T06:29:01.418Z,89.38
2018-12-30T06:31:32.534Z,89.37
2018-12-30T06:34:03.726Z,89.50
2018-12-30T06:36:34.904Z,89.57
2018-12-30T06:39:08.216Z,89.53
2018-12-30T06:41:39.444Z,89.77
2018-12-30T06:44:10.884Z,89.78
2018-12-30T06:46:41.996Z,89.59
2018-12-30T06:49:13.136Z,89.83
2018-12-30T06:51:44.755Z,89.94
2018-12-30T06:54:16.243Z,90.21
2018-12-30T06:56:47.515Z,90.12
2018-12-30T06:59:18.502Z,90.30
2018-12-30T07:01:49.926Z,90.11
2018-12-30T07:04:21.288Z,89.76
2018-12-30T07:06:53.518Z,89.74
2018-12-30T07:09:24.824Z,89.32
2018-12-30T07:11:56.327Z,88.87
2018-12-30T07:14:27.551Z,88.16
2018-12-30T07:16:59.061Z,87.59
2018-12-30T07:19:30.271Z,87.61
2018-12-30T07:22:01.732Z,87.57
2018-12-30T07:24:32.889Z,87.30
2018-12-30T07:27:05.709Z,87.07
2018-12-30T07:29:36.710Z,86.86
2018-12-30T07:32:10.002Z,86.60
2018-12-30T07:34:41.955Z,86.36
2018-12-30T07:37:13.755Z,85.98
2018-12-30T07:39:45.009Z,85.80
2018-12-30T07:42:16.486Z,85.78
2018-12-30T07:44:47.670Z,85.77
2018-12-30T07:47:19.708Z,85.74
2018-12-30T07:49:50.870Z,85.62
2018-12-30T07:52:22.273Z,85.77
2018-12-30T07:54:53.514Z,85.76
2018-12-30T07:57:24.940Z,85.83
2018-12-30T07:59:57.105Z,85.47
2018-12-30T08:02:28.495Z,85.51
2018-12-30T08:04:59.917Z,85.18
2018-12-30T08:07:32.220Z,85.16
2018-12-30T08:10:03.427Z,84.95
2018-12-30T08:12:34.645Z,84.92
2018-12-30T08:15:06.486Z,84.60
2018-12-30T08:17:37.669Z,84.65
2018-12-30T08:20:08.902Z,84.71
2018-12-30T08:22:40.213Z,84.56
2018-12-30T08:25:11.389Z,84.17
2018-12-30T08:27:42.624Z,84.05
2018-12-30T08:30:13.938Z,83.80
2018-12-30T08:32:45.277Z,83.61
2018-12-30T08:35:16.260Z,83.60
2018-12-30T08:37:47.574Z,83.48
2018-12-30T08:40:18.855Z,83.61
2018-12-30T08:42:49.885Z,83.86
2018-12-30T08:45:22.131Z,83.79
2018-12-30T08:47:53.387Z,83.61
2018-12-30T08:50:24.579Z,83.57
2018-12-30T08:52:55.596Z,83.41
2018-12-30T08:55:26.740Z,83.38
2018-12-30T08:57:58.593Z,83.43
2018-12-30T09:00:29.868Z,83.27
2018-12-30T09:03:01.086Z,82.86
2018-12-30T09:05:32.149Z,83.25
2018-12-30T09:08:03.343Z,83.85
2018-12-30T09:10:34.527Z,83.87
2018-12-30T09:13:05.880Z,83.92
2018-12-30T09:15:37.036Z,84.30
2018-12-30T09:18:08.460Z,84.18
2018-12-30T09:20:39.798Z,83.75
2018-12-30T09:23:10.902Z,84.10
2018-12-30T09:25:42.801Z,83.59
2018-12-30T09:28:14.233Z,83.68
2018-12-30T09:30:45.911Z,83.50
2018-12-30T09:33:19.601Z,83.67
2018-12-30T09:35:50.771Z,83.10
2018-12-30T09:38:22.096Z,83.23
2018-12-30T09:40:53.174Z,82.16
2018-12-30T09:43:24.278Z,81.91
2018-12-30T09:45:55.250Z,81.55
2018-12-30T09:48:33.603Z,81.14
2018-12-30T09:50:59.445Z,80.64
2018-12-30T09:53:30.663Z,81.10
2018-12-30T09:56:02.105Z,80.61
2018-12-30T09:58:33.450Z,80.96
2018-12-30T10:01:04.764Z,80.74
2018-12-30T10:03:35.838Z,80.59
2018-12-30T10:06:08.226Z,80.78
2018-12-30T10:08:39.574Z,80.13
2018-12-30T10:11:10.761Z,80.41
2018-12-30T10:13:42.939Z,79.27
2018-12-30T10:16:14.514Z,79.58
2018-12-30T10:18:45.643Z,79.37
2018-12-30T10:21:17.129Z,79.23
2018-12-30T10:23:52.915Z,79.53
2018-12-30T10:26:21.276Z,79.17
2018-12-30T10:28:52.495Z,79.54
2018-12-30T10:31:23.795Z,79.61
2018-12-30T10:33:54.891Z,79.79
2018-12-30T10:36:26.055Z,79.87
2018-12-30T10:38:57.188Z,80.38
2018-12-30T10:41:28.250Z,80.68
2018-12-30T10:43:59.466Z,81.54
2018-12-30T10:46:30.859Z,81.58
2018-12-30T10:49:02.062Z,81.05
2018-12-30T10:51:34.812Z,81.05
2018-12-30T10:54:06.774Z,81.34
2018-12-30T10:56:38.139Z,81.63
2018-12-30T10:59:09.355Z,82.15
2018-12-30T11:01:40.429Z,82.57
2018-12-30T11:04:11.776Z,82.38
2018-12-30T11:06:43.012Z,82.44
2018-12-30T11:09:14.426Z,82.65
2018-12-30T11:11:45.759Z,82.64
2018-12-30T11:14:17.461Z,82.70
2018-12-30T11:16:50.382Z,83.48
2018-12-30T11:19:21.531Z,84.09
2018-12-30T11:21:52.755Z,84.09
2018-12-30T11:24:24.250Z,83.96
2018-12-30T11:26:55.314Z,83.92
2018-12-30T11:29:26.443Z,83.94
2018-12-30T11:31:59.299Z,83.91
2018-12-30T11:34:30.333Z,83.79
2018-12-30T11:37:01.377Z,83.67
2018-12-30T11:39:33.152Z,83.56
2018-12-30T11:42:04.246Z,83.06
2018-12-30T11:44:35.544Z,82.81
2018-12-30T11:47:06.633Z,82.89
2018-12-30T11:49:37.674Z,82.77
2018-12-30T11:52:08.759Z,82.53
2018-12-30T11:54:39.855Z,82.06
2018-12-30T11:57:11.141Z,82.23
2018-12-30T11:59:42.290Z,81.63
2018-12-30T12:02:13.508Z,81.34
2018-12-30T12:04:44.860Z,81.35
2018-12-30T12:07:17.881Z,81.17
2018-12-30T12:09:49.055Z,80.79
2018-12-30T12:12:20.403Z,81.15
2018-12-30T12:14:51.837Z,81.50
2018-12-30T12:17:23.059Z,81.43
2018-12-30T12:19:54.206Z,81.72
2018-12-30T12:22:25.294Z,81.67
2018-12-30T12:24:57.767Z,81.51
2018-12-30T12:27:29.214Z,81.15
2018-12-30T12:30:00.645Z,82.03
2018-12-30T12:32:31.731Z,81.94
2018-12-30T12:35:03.502Z,81.65
2018-12-30T12:37:34.700Z,81.38
2018-12-30T12:40:05.970Z,81.44
2018-12-30T12:42:37.036Z,81.27
2018-12-30T12:45:08.254Z,81.29
2018-12-30T12:47:39.225Z,81.45
2018-12-30T12:50:11.405Z,81.42
2018-12-30T12:52:42.465Z,81.50
2018-12-30T12:55:13.883Z,81.64
2018-12-30T12:57:45.223Z,81.75
2018-12-30T13:00:16.419Z,82.03
2018-12-30T13:02:48.972Z,81.97
2018-12-30T13:05:20.939Z,82.03
2018-12-30T13:07:52.145Z,82.16
2018-12-30T13:10:23.697Z,82.18
2018-12-30T13:12:54.821Z,82.41
2018-12-30T13:15:26.126Z,82.72
2018-12-30T13:17:57.772Z,82.83
2018-12-30T13:20:29.602Z,83.20
2018-12-30T13:23:00.560Z,83.11
2018-12-30T13:25:33.085Z,83.07
2018-12-30T13:28:04.186Z,82.95
2018-12-30T13:30:35.215Z,82.67
2018-12-30T13:33:06.255Z,82.30
2018-12-30T13:35:43.402Z,82.65
2018-12-30T13:38:11.546Z,82.34
2018-12-30T13:40:42.857Z,82.54
2018-12-30T13:43:13.898Z,82.36
2018-12-30T13:45:45.081Z,82.25
2018-12-30T13:48:16.075Z,82.14
2018-12-30T13:50:47.243Z,82.15
2018-12-30T13:53:18.699Z,82.16
2018-12-30T13:55:50.453Z,82.24
2018-12-30T13:58:21.707Z,81.93
2018-12-30T14:00:55.130Z,81.78
2018-12-30T14:03:26.426Z,81.69
2018-12-30T14:05:57.778Z,81.73
2018-12-30T14:08:31.298Z,81.67
2018-12-30T14:11:02.419Z,81.48
2018-12-30T14:13:33.460Z,81.40
2018-12-30T14:16:05.951Z,81.61
2018-12-30T14:18:37.191Z,81.42
2018-12-30T14:21:08.214Z,81.58
2018-12-30T14:23:39.386Z,81.46
2018-12-30T14:26:10.593Z,81.28
2018-12-30T14:28:41.698Z,81.33
2018-12-30T14:31:12.822Z,81.52
2018-12-30T14:33:44.165Z,81.93
2018-12-30T14:36:15.389Z,81.96
2018-12-30T14:38:46.547Z,81.83
2018-12-30T14:41:17.702Z,82.05
2018-12-30T14:43:50.596Z,82.01
2018-12-30T14:46:23.137Z,82.78
2018-12-30T14:48:54.209Z,83.08
2018-12-30T14:51:25.553Z,83.44
2018-12-30T14:53:56.907Z,83.79
2018-12-30T14:56:28.499Z,84.08
2018-12-30T14:59:00.686Z,84.67
2018-12-30T15:01:31.938Z,84.73
2018-12-30T15:04:03.028Z,84.73
2018-12-30T15:06:34.612Z,84.57
2018-12-30T15:09:08.451Z,84.96
2018-12-30T15:11:39.543Z,85.06
2018-12-30T15:14:10.577Z,85.50
2018-12-30T15:16:41.699Z,85.73
2018-12-30T15:19:12.911Z,85.97
2018-12-30T15:21:44.332Z,86.24
2018-12-30T15:24:15.332Z,86.16
2018-12-30T15:26:47.417Z,86.58
2018-12-30T15:29:18.475Z,86.97
2018-12-30T15:31:49.588Z,87.24
2018-12-30T15:34:20.823Z,88.23
2018-12-30T15:36:53.133Z,88.18
2018-12-30T15:39:24.225Z,88.04
2018-12-30T15:41:55.899Z,88.97
2018-12-30T15:44:26.897Z,89.43
2018-12-30T15:46:58.036Z,89.58
2018-12-30T15:49:30.826Z,89.82
2018-12-30T15:52:01.872Z,89.80
2018-12-30T15:54:32.965Z,89.76
2018-12-30T15:57:04.098Z,90.60
2018-12-30T15:59:35.184Z,90.60
2018-12-30T16:02:06.337Z,90.37
2018-12-30T16:04:37.443Z,90.36
2018-12-30T16:07:08.665Z,90.72
2018-12-30T16:09:39.895Z,90.77
2018-12-30T16:12:11.200Z,90.52
2018-12-30T16:14:42.286Z,90.64
2018-12-30T16:17:13.553Z,90.72
2018-12-30T16:19:44.869Z,90.79
2018-12-30T16:22:16.494Z,90.71
2018-12-30T16:24:47.599Z,91.04
2018-12-30T16:27:18.711Z,91.38
2018-12-30T16:29:49.875Z,91.65
2018-12-30T16:32:21.151Z,91.79
2018-12-30T16:34:52.406Z,91.73
2018-12-30T16:37:23.558Z,92.02
2018-12-30T16:39:54.762Z,92.16
2018-12-30T16:42:26.029Z,92.32
2018-12-30T16:44:57.145Z,92.47
2018-12-30T16:47:28.393Z,92.69
2018-12-30T16:49:59.570Z,92.92
2018-12-30T16:52:30.722Z,93.01
2018-12-30T16:55:02.301Z,93.00
2018-12-30T16:57:33.701Z,93.34
2018-12-30T17:00:07.270Z,93.49
2018-12-30T17:02:38.351Z,93.72
2018-12-30T17:05:10.906Z,94.07
2018-12-30T17:07:42.208Z,94.17
2018-12-30T17:10:13.467Z,94.42
2018-12-30T17:12:46.567Z,94.60
2018-12-30T17:15:17.664Z,94.75
2018-12-30T17:17:48.782Z,94.94
2018-12-30T17:20:19.930Z,95.18
2018-12-30T17:22:51.664Z,95.26
2018-12-30T17:25:22.808Z,95.33
2018-12-30T17:27:54.083Z,95.45
2018-12-30T17:30:25.258Z,95.46
2018-12-30T17:32:56.516Z,95.47
2018-12-30T17:35:28.982Z,95.54
2018-12-30T17:38:00.203Z,95.54
2018-12-30T17:40:38.216Z,95.58
2018-12-30T17:43:04.983Z,95.54
2018-12-30T17:45:36.454Z,95.48
2018-12-30T17:48:07.733Z,95.55
2018-12-30T17:50:39.166Z,95.60
2018-12-30T17:53:10.247Z,95.57
2018-12-30T17:55:41.591Z,95.43
2018-12-30T17:58:12.787Z,94.82
2018-12-30T18:00:44.866Z,94.93
2018-12-30T18:03:17.751Z,94.68
2018-12-30T18:05:48.770Z,94.17
2018-12-30T18:08:19.987Z,94.25
2018-12-30T18:10:51.241Z,94.41
2018-12-30T18:13:22.476Z,94.63
2018-12-30T18:15:53.655Z,94.68
2018-12-30T18:18:25.165Z,94.80
2018-12-30T18:20:56.750Z,94.51
2018-12-30T18:23:27.792Z,94.54
2018-12-30T18:25:58.981Z,94.50
2018-12-30T18:28:30.062Z,94.23
2018-12-30T18:31:01.260Z,93.58
2018-12-30T18:33:32.705Z,93.79
2018-12-30T18:36:03.865Z,93.60
2018-12-30T18:38:35.149Z,93.62
2018-12-30T18:41:06.395Z,93.87
2018-12-30T18:43:37.630Z,94.04
2018-12-30T18:46:09.032Z,94.03
2018-12-30T18:48:40.855Z,94.21
2018-12-30T18:51:12.379Z,94.46
2018-12-30T18:53:43.649Z,94.48
2018-12-30T18:56:14.705Z,94.85
2018-12-30T18:58:45.841Z,94.89
2018-12-30T19:01:18.730Z,94.75
2018-12-30T19:03:50.554Z,94.87
2018-12-30T19:06:22.207Z,95.11
2018-12-30T19:08:53.448Z,95.05
2018-12-30T19:11:24.674Z,95.18
2018-12-30T19:13:56.193Z,95.32
2018-12-30T19:16:27.217Z,95.41
2018-12-30T19:18:59.967Z,95.46
2018-12-30T19:21:31.185Z,95.43
2018-12-30T19:24:02.457Z,95.29
2018-12-30T19:26:33.758Z,95.30
2018-12-30T19:29:05.985Z,95.25
2018-12-30T19:31:37.044Z,95.33
2018-12-30T19:34:08.069Z,95.36
2018-12-30T19:36:39.917Z,95.30
2018-12-30T19:39:11.185Z,95.06
2018-12-30T19:41:43.125Z,95.19
2018-12-30T19:44:14.282Z,95.33
2018-12-30T19:46:46.120Z,95.57
2018-12-30T19:49:17.373Z,95.70
2018-12-30T19:51:48.561Z,95.76
2018-12-30T19:54:20.004Z,95.77
2018-12-30T19:56:51.137Z,95.97
2018-12-30T19:59:23.192Z,96.18
2018-12-30T20:01:54.340Z,96.33
2018-12-30T20:04:25.664Z,96.48
2018-12-30T20:06:56.832Z,96.60
2018-12-30T20:09:28.140Z,96.65
2018-12-30T20:11:59.233Z,96.73
2018-12-30T20:14:31.750Z,96.84
2018-12-30T20:17:02.760Z,96.76
2018-12-30T20:19:33.899Z,96.79
2018-12-30T20:22:06.271Z,96.92
2018-12-30T20:24:37.622Z,97.06
2018-12-30T20:27:08.661Z,97.05
2018-12-30T20:29:39.908Z,97.07
2018-12-30T20:32:10.881Z,97.16
2018-12-30T20:34:42.133Z,97.19
2018-12-30T20:37:15.099Z,97.11
2018-12-30T20:39:46.418Z,97.17
2018-12-30T20:42:17.604Z,97.19
2018-12-30T20:44:48.984Z,97.18
2018-12-30T20:47:20.077Z,97.21
2018-12-30T20:49:51.191Z,97.20
2018-12-30T20:52:22.497Z,97.21
2018-12-30T20:54:53.643Z,97.21
2018-12-30T20:57:24.737Z,97.19
2018-12-30T20:59:55.959Z,97.14
2018-12-30T21:02:27.010Z,97.18
2018-12-30T21:04:58.792Z,97.17
2018-12-30T21:07:29.887Z,97.16
2018-12-30T21:10:01.187Z,97.15
2018-12-30T21:12:32.689Z,97.13
2018-12-30T21:15:03.905Z,97.13
2018-12-30T21:17:35.541Z,97.09
2018-12-30T21:20:07.164Z,97.08
2018-12-30T21:22:40.009Z,97.10
2018-12-30T21:25:11.202Z,97.03
2018-12-30T21:27:42.620Z,96.96
2018-12-30T21:30:13.642Z,96.94
2018-12-30T21:32:44.933Z,96.96
2018-12-30T21:35:16.345Z,96.90
2018-12-30T21:37:47.595Z,96.90
2018-12-30T21:40:18.943Z,96.90
2018-12-30T21:42:50.362Z,96.81
2018-12-30T21:45:21.890Z,96.84
2018-12-30T21:47:53.358Z,96.85
2018-12-30T21:50:24.911Z,96.84
2018-12-30T21:52:57.233Z,96.87
2018-12-30T21:55:29.135Z,96.84
2018-12-30T21:58:00.618Z,96.76
2018-12-30T22:00:31.625Z,96.73
2018-12-30T22:03:03.930Z,96.69
2018-12-30T22:05:36.860Z,96.63
2018-12-30T22:08:08.970Z,96.64
2018-12-30T22:10:40.378Z,96.81
2018-12-30T22:13:11.343Z,96.94
2018-12-30T22:15:42.451Z,96.97
2018-12-30T22:18:13.672Z,96.97
2018-12-30T22:20:44.996Z,96.99
2018-12-30T22:23:16.344Z,97.09
2018-12-30T22:25:47.496Z,97.16
2018-12-30T22:28:18.511Z,97.25
2018-12-30T22:30:49.667Z,97.24
2018-12-30T22:33:20.984Z,97.15
2018-12-30T22:35:52.041Z,97.12
2018-12-30T22:38:23.273Z,96.99
2018-12-30T22:40:54.726Z,96.87
2018-12-30T22:43:26.021Z,96.77
2018-12-30T22:45:57.362Z,96.52
2018-12-30T22:48:28.464Z,96.22
2018-12-30T22:50:59.639Z,96.11
2018-12-30T22:53:30.735Z,96.03
2018-12-30T22:56:01.835Z,96.07
2018-12-30T22:58:33.032Z,96.27
2018-12-30T23:01:11.815Z,96.41
2018-12-30T23:03:43.041Z,96.52
2018-12-30T23:06:14.174Z,96.45
2018-12-30T23:08:45.560Z,96.48
2018-12-30T23:11:16.720Z,96.46
2018-12-30T23:13:47.849Z,96.39
2018-12-30T23:16:19.209Z,96.31
2018-12-30T23:18:50.223Z,96.31
2018-12-30T23:21:21.513Z,96.19
2018-12-30T23:23:53.872Z,95.46
2018-12-30T23:26:25.122Z,95.28
2018-12-30T23:28:56.370Z,94.89
2018-12-30T23:31:27.883Z,93.94
2018-12-30T23:34:00.537Z,93.91
2018-12-30T23:36:31.783Z,93.36
2018-12-30T23:39:03.009Z,93.36
2018-12-30T23:41:35.215Z,92.85
2018-12-30T23:44:09.189Z,93.16
2018-12-30T23:46:40.146Z,93.06
2018-12-30T23:49:11.350Z,92.81
2018-12-30T23:51:42.596Z,93.04
2018-12-30T23:54:13.769Z,93.11
2018-12-30T23:56:45.072Z,92.41
2018-12-30T23:59:16.250Z,91.96
